Time;durP1;ratioP1;P1;durP2;ratioP2;P2;SDS_P1;SDS_P2;PMS_P1;PMS_P2;Temp;Humidity;BMP_temperature;BMP_pressure;BME280_temperature;BME280_humidity;BME280_pressure;Samples;Min_cycle;Max_cycle;Signal;HPM_P1;HPM_P2
2022/03/06 00:01:09;;;;;;;44.33;18.35;;;;;;;1.42;75.86;101202.38;8428520;28;20445;-65
2022/03/06 00:05:10;;;;;;;37.90;17.42;;;;;;;1.58;74.09;101206.09;8410883;28;20544;-65
2022/03/06 00:09:10;;;;;;;35.78;17.13;;;;;;;1.38;74.91;101207.00;8429113;28;20516;-65
2022/03/06 00:13:11;;;;;;;37.63;17.10;;;;;;;1.15;76.69;101207.09;8399805;28;20044;-65
2022/03/06 00:17:12;;;;;;;34.28;17.45;;;;;;;1.07;78.06;101208.38;8387366;28;20045;-65
2022/03/06 00:21:13;;;;;;;37.78;17.88;;;;;;;1.24;76.30;101211.16;8373143;28;20064;-65
2022/03/06 00:25:13;;;;;;;42.30;18.58;;;;;;;1.30;76.34;101206.47;8373481;28;20065;-65
2022/03/06 00:29:14;;;;;;;35.80;17.00;;;;;;;1.14;77.36;101204.50;8376124;28;20040;-65
2022/03/06 00:33:14;;;;;;;40.78;17.15;;;;;;;0.81;79.35;101211.22;8403987;28;20082;-65
2022/03/06 00:37:15;;;;;;;36.35;18.05;;;;;;;0.83;80.03;101204.94;8405733;28;20039;-65
2022/03/06 00:41:17;;;;;;;39.22;18.00;;;;;;;0.81;79.59;101206.78;8422432;28;20044;-65
2022/03/06 00:45:18;;;;;;;39.90;17.83;;;;;;;0.73;80.37;101208.03;8405661;28;20040;-65
2022/03/06 00:49:18;;;;;;;44.85;19.88;;;;;;;0.80;79.82;101204.19;8404613;28;20041;-65
2022/03/06 00:53:18;;;;;;;45.22;19.55;;;;;;;0.79;79.54;101207.78;8406669;28;20036;-65
2022/03/06 00:57:19;;;;;;;41.08;18.25;;;;;;;0.86;78.96;101209.25;8405130;28;20044;-65
2022/03/06 01:01:19;;;;;;;34.85;17.52;;;;;;;0.86;78.35;101211.91;8405887;28;20040;-65
2022/03/06 01:05:20;;;;;;;41.13;18.88;;;;;;;0.79;80.31;101207.78;8406454;28;20037;-65
2022/03/06 01:09:20;;;;;;;43.50;19.63;;;;;;;0.69;80.04;101217.03;8389884;28;20037;-65
2022/03/06 01:13:22;;;;;;;47.72;20.00;;;;;;;0.45;82.27;101213.56;8373510;28;20041;-65
2022/03/06 01:17:22;;;;;;;39.90;18.23;;;;;;;0.60;82.38;101218.28;8373777;28;20037;-65
2022/03/06 01:21:22;;;;;;;40.10;19.35;;;;;;;0.47;81.94;101216.16;8354932;28;20045;-65
2022/03/06 01:25:23;;;;;;;37.78;18.13;;;;;;;0.35;82.64;101219.31;8372888;28;20044;-65
2022/03/06 01:29:23;;;;;;;40.80;19.23;;;;;;;-0.13;84.79;101233.53;8375265;28;20044;-64
2022/03/06 01:33:24;;;;;;;40.53;18.83;;;;;;;-0.21;84.76;101238.25;8386843;28;20048;-65
2022/03/06 01:37:24;;;;;;;37.10;18.73;;;;;;;-0.25;86.49;101246.38;8405713;28;20072;-65
2022/03/06 01:41:25;;;;;;;51.00;20.25;;;;;;;-0.06;84.65;101229.72;8421377;28;20066;-65
2022/03/06 01:45:26;;;;;;;58.88;21.05;;;;;;;0.11;82.13;101234.41;8387276;28;20067;-65
2022/03/06 01:49:26;;;;;;;37.33;18.73;;;;;;;0.07;82.21;101231.91;8403422;28;20040;-65
2022/03/06 01:53:27;;;;;;;41.28;18.52;;;;;;;0.09;82.64;101230.06;8369682;28;20500;-65
2022/03/06 01:57:28;;;;;;;45.22;21.13;;;;;;;0.04;83.03;101236.41;8395416;28;20101;-65
2022/03/06 02:01:29;;;;;;;44.90;21.25;;;;;;;0.22;82.23;101247.28;8396933;28;20052;-65
2022/03/06 02:05:30;;;;;;;51.28;21.40;;;;;;;0.23;82.37;101243.69;8398158;28;20097;-65
2022/03/06 02:09:30;;;;;;;39.10;18.70;;;;;;;0.39;82.02;101239.56;8395579;28;20056;-65
2022/03/06 02:13:30;;;;;;;39.58;19.08;;;;;;;-0.13;82.73;101233.53;8403461;28;20040;-65
2022/03/06 02:17:31;;;;;;;40.45;19.42;;;;;;;-0.12;84.08;101240.56;8402904;28;20032;-65
2022/03/06 02:21:31;;;;;;;45.92;21.48;;;;;;;0.15;84.03;101230.69;8402387;28;20048;-65
2022/03/06 02:25:34;;;;;;;44.13;20.95;;;;;;;-0.12;84.37;101242.38;8401729;28;20051;-65
2022/03/06 02:29:39;;;;;;;45.13;20.42;;;;;;;-0.01;85.08;101240.19;8403022;28;20039;-65
2022/03/06 02:33:39;;;;;;;39.42;19.50;;;;;;;-0.32;85.28;101240.44;8383871;28;20036;-65
2022/03/06 02:37:39;;;;;;;38.90;18.67;;;;;;;-0.25;85.20;101244.59;8399738;28;20037;-65
2022/03/06 02:41:40;;;;;;;46.00;20.13;;;;;;;-0.19;84.70;101239.06;8369278;28;20461;-65
2022/03/06 02:45:41;;;;;;;45.85;19.55;;;;;;;-0.34;85.15;101247.59;8369874;28;20033;-64
2022/03/06 02:49:41;;;;;;;42.33;20.15;;;;;;;-0.41;86.21;101243.41;8377522;28;20046;-64
2022/03/06 02:53:41;;;;;;;46.22;20.98;;;;;;;-0.42;87.09;101254.09;8379807;28;20165;-65
2022/03/06 02:57:43;;;;;;;43.00;20.15;;;;;;;-0.67;86.76;101238.13;8402572;28;20055;-65
2022/03/06 03:01:43;;;;;;;50.97;22.00;;;;;;;-0.77;87.72;101242.03;8402986;28;20504;-65
2022/03/06 03:05:44;;;;;;;46.78;20.63;;;;;;;-0.96;88.22;101232.09;8399282;28;20055;-65
2022/03/06 03:09:44;;;;;;;50.75;20.42;;;;;;;-0.91;88.86;101236.31;8369363;28;20093;-65
2022/03/06 03:13:44;;;;;;;46.40;20.63;;;;;;;-0.78;87.90;101240.31;8370098;28;20036;-65
2022/03/06 03:17:45;;;;;;;47.60;20.60;;;;;;;-0.89;88.25;101245.09;8370823;28;20087;-65
2022/03/06 03:21:46;;;;;;;49.20;21.63;;;;;;;-0.80;87.97;101255.41;8385383;28;20049;-65
2022/03/06 03:25:46;;;;;;;47.50;20.80;;;;;;;-0.72;88.11;101255.16;8369763;28;20093;-65
2022/03/06 03:29:46;;;;;;;46.75;22.00;;;;;;;-0.70;87.98;101254.16;8369799;28;20063;-65
2022/03/06 03:33:47;;;;;;;46.97;20.27;;;;;;;-0.87;89.37;101256.53;8369007;28;20037;-65
2022/03/06 03:37:47;;;;;;;50.40;22.33;;;;;;;-0.71;88.05;101263.06;8382364;28;20041;-65
2022/03/06 03:41:48;;;;;;;50.53;20.15;;;;;;;-0.59;88.03;101262.66;8385885;28;20063;-65
2022/03/06 03:45:49;;;;;;;45.45;20.67;;;;;;;-0.60;88.10;101268.88;8369841;28;20043;-65
2022/03/06 03:49:50;;;;;;;47.08;21.05;;;;;;;-0.49;90.59;101266.72;8355438;28;20150;-65
2022/03/06 03:53:50;;;;;;;43.10;19.55;;;;;;;-0.48;88.50;101268.47;8392183;28;20051;-65
2022/03/06 03:57:51;;;;;;;48.78;20.83;;;;;;;-0.54;86.96;101271.34;8391195;28;20040;-65
2022/03/06 04:01:52;;;;;;;45.75;20.55;;;;;;;-0.33;86.87;101259.09;8385867;28;20045;-65
2022/03/06 04:05:53;;;;;;;50.08;22.55;;;;;;;-0.28;86.75;101267.75;8392183;28;20046;-65
2022/03/06 04:09:53;;;;;;;43.08;20.58;;;;;;;-0.25;86.66;101271.16;8390575;28;20028;-65
2022/03/06 04:13:53;;;;;;;44.92;20.92;;;;;;;-0.68;87.49;101268.25;8357983;28;20041;-64
2022/03/06 04:17:54;;;;;;;51.92;21.80;;;;;;;-0.93;87.81;101277.97;8365963;28;20037;-65
2022/03/06 04:21:55;;;;;;;44.35;19.80;;;;;;;-1.00;90.47;101270.25;8373490;28;20807;-65
2022/03/06 04:25:55;;;;;;;42.38;19.52;;;;;;;-0.84;88.58;101277.66;8368360;28;20033;-65
2022/03/06 04:29:56;;;;;;;43.97;19.38;;;;;;;-0.65;88.12;101289.41;8369292;28;20064;-65
2022/03/06 04:33:56;;;;;;;48.33;20.55;;;;;;;-0.48;89.42;101297.69;8375058;28;20040;-65
2022/03/06 04:37:57;;;;;;;43.25;20.33;;;;;;;-0.40;86.92;101290.28;8372665;28;20056;-65
2022/03/06 04:41:57;;;;;;;43.22;19.65;;;;;;;-0.78;88.06;101298.69;8370250;28;20067;-65
2022/03/06 04:45:57;;;;;;;43.83;21.13;;;;;;;-0.72;89.01;101301.16;8350540;28;20429;-65
2022/03/06 04:49:58;;;;;;;43.72;20.05;;;;;;;-1.10;90.84;101311.28;8363916;28;20128;-65
2022/03/06 04:53:58;;;;;;;51.30;22.63;;;;;;;-1.00;90.19;101312.72;8349556;28;20059;-65
2022/03/06 04:57:59;;;;;;;46.03;20.70;;;;;;;-0.76;89.98;101312.78;8341579;28;20092;-65
2022/03/06 05:02:00;;;;;;;47.28;21.15;;;;;;;-0.85;93.09;101323.69;8340210;28;20489;-65
2022/03/06 05:06:01;;;;;;;45.00;20.20;;;;;;;-0.78;94.66;101319.94;8346227;28;20052;-65
2022/03/06 05:10:01;;;;;;;45.88;21.15;;;;;;;-0.79;90.73;101312.88;8357125;28;20045;-65
2022/03/06 05:14:02;;;;;;;43.95;19.83;;;;;;;-0.60;90.24;101314.03;8366031;28;20571;-65
2022/03/06 05:18:03;;;;;;;47.38;21.33;;;;;;;-0.63;89.77;101318.56;8371951;28;20037;-65
2022/03/06 05:22:03;;;;;;;42.10;20.52;;;;;;;-0.79;91.74;101307.56;8372855;28;20405;-65
2022/03/06 05:26:04;;;;;;;46.15;20.60;;;;;;;-0.28;89.72;101316.44;8371954;28;20048;-65
2022/03/06 05:30:07;;;;;;;47.05;20.88;;;;;;;-0.21;88.34;101312.63;8371308;28;20040;-65
2022/03/06 05:34:08;;;;;;;45.75;19.80;;;;;;;-0.42;88.31;101308.06;8397400;28;20048;-65
2022/03/06 05:38:08;;;;;;;43.47;20.08;;;;;;;-0.10;86.16;101318.44;8354689;28;20064;-65
2022/03/06 05:42:09;;;;;;;43.03;18.52;;;;;;;-0.15;85.72;101323.03;8339061;28;20124;-65
2022/03/06 05:46:09;;;;;;;44.08;20.25;;;;;;;-0.44;87.33;101319.66;8337716;28;20106;-65
2022/03/06 05:50:10;;;;;;;42.72;19.90;;;;;;;-0.27;87.75;101327.94;8346962;28;20045;-65
2022/03/06 05:54:11;;;;;;;42.70;20.88;;;;;;;-0.24;88.44;101328.69;8363469;28;20037;-65
2022/03/06 05:58:12;;;;;;;45.85;21.50;;;;;;;-0.29;88.61;101330.66;8401499;28;20508;-65
2022/03/06 06:02:13;;;;;;;41.58;19.17;;;;;;;-0.26;88.92;101351.78;8404438;28;20385;-65
2022/03/06 06:06:13;;;;;;;47.17;19.95;;;;;;;-0.23;89.70;101341.06;8392583;28;20042;-65
2022/03/06 06:10:13;;;;;;;45.25;20.10;;;;;;;-0.25;90.31;101353.50;8344910;28;20067;-65
2022/03/06 06:14:14;;;;;;;46.72;21.33;;;;;;;-0.33;89.47;101355.56;8352922;28;20040;-65
2022/03/06 06:18:14;;;;;;;44.42;20.52;;;;;;;-0.27;88.86;101365.97;8356441;28;20045;-65
2022/03/06 06:22:15;;;;;;;37.65;19.05;;;;;;;-0.18;88.07;101365.66;8370404;28;20076;-65
2022/03/06 06:26:16;;;;;;;45.17;20.35;;;;;;;-0.04;89.07;101374.03;8381908;28;20045;-65
2022/03/06 06:30:16;;;;;;;35.95;18.25;;;;;;;-0.06;87.62;101381.19;8360948;28;20095;-65
2022/03/06 06:34:18;;;;;;;44.80;21.98;;;;;;;-0.20;90.20;101372.84;8382451;28;20033;-65
2022/03/06 06:38:20;;;;;;;44.03;20.05;;;;;;;-0.04;91.42;101384.66;8361631;28;20037;-65
2022/03/06 06:42:21;;;;;;;49.55;21.00;;;;;;;-0.26;91.28;101388.09;8371179;28;20068;-65
2022/03/06 06:46:21;;;;;;;46.70;21.10;;;;;;;-0.06;90.60;101394.47;8370009;28;20532;-65
2022/03/06 06:50:22;;;;;;;50.60;20.63;;;;;;;0.12;89.18;101400.94;8369445;28;20051;-65
2022/03/06 06:54:22;;;;;;;37.75;18.63;;;;;;;0.00;89.68;101401.38;8368186;28;20063;-65
2022/03/06 06:58:23;;;;;;;46.53;19.83;;;;;;;0.08;90.21;101409.94;8369868;28;20037;-65
2022/03/06 07:02:23;;;;;;;43.08;19.50;;;;;;;0.31;90.93;101412.69;8370491;28;20048;-65
2022/03/06 07:06:24;;;;;;;43.53;19.55;;;;;;;0.36;88.58;101417.84;8359328;28;20033;-65
2022/03/06 07:10:24;;;;;;;46.38;20.30;;;;;;;0.36;89.04;101418.69;8344671;28;20041;-65
2022/03/06 07:14:25;;;;;;;46.40;20.67;;;;;;;0.58;88.90;101413.47;8343937;28;20046;-65
2022/03/06 07:18:25;;;;;;;41.45;20.00;;;;;;;0.66;87.91;101424.69;8386959;28;20408;-65
2022/03/06 07:22:26;;;;;;;61.13;25.58;;;;;;;0.66;87.95;101430.88;8399918;28;20038;-65
2022/03/06 07:26:26;;;;;;;45.95;20.63;;;;;;;0.76;88.81;101426.09;8392971;28;20222;-65
2022/03/06 07:30:27;;;;;;;58.10;25.50;;;;;;;0.95;88.05;101437.78;8356262;28;20332;-66
2022/03/06 07:34:27;;;;;;;59.83;26.65;;;;;;;0.98;87.11;101437.66;8366773;28;20504;-65
2022/03/06 07:38:28;;;;;;;50.88;22.77;;;;;;;1.21;86.65;101445.63;8361622;28;20052;-65
2022/03/06 07:42:28;;;;;;;64.45;30.08;;;;;;;1.21;86.45;101434.97;8363791;28;20044;-65
2022/03/06 07:46:29;;;;;;;45.75;21.48;;;;;;;1.02;86.07;101449.94;8347675;28;20338;-65
2022/03/06 07:50:30;;;;;;;42.85;19.40;;;;;;;1.06;86.04;101448.88;8369449;28;20102;-65
2022/03/06 07:54:30;;;;;;;47.15;20.90;;;;;;;1.38;86.59;101448.50;8366507;28;20041;-65
2022/03/06 07:58:31;;;;;;;44.22;20.50;;;;;;;1.15;86.03;101445.88;8364181;28;20033;-65
2022/03/06 08:02:31;;;;;;;47.63;22.05;;;;;;;1.20;86.63;101446.56;8348003;28;20568;-65
2022/03/06 08:06:31;;;;;;;42.28;21.15;;;;;;;1.18;87.96;101453.72;8367088;28;20041;-65
2022/03/06 08:10:32;;;;;;;47.15;21.88;;;;;;;1.48;87.27;101440.09;8340607;28;20045;-65
2022/03/06 08:14:32;;;;;;;46.58;22.30;;;;;;;1.95;83.77;101451.47;8363731;28;20143;-65
2022/03/06 08:18:33;;;;;;;37.78;19.40;;;;;;;2.10;86.47;101458.00;8345628;28;20061;-65
2022/03/06 08:22:34;;;;;;;42.00;19.42;;;;;;;2.70;82.63;101458.88;8355238;28;20049;-65
2022/03/06 08:26:34;;;;;;;39.78;19.85;;;;;;;3.29;77.87;101448.97;8348806;28;20041;-65
2022/03/06 08:30:34;;;;;;;40.70;19.13;;;;;;;3.77;79.01;101441.28;8357322;28;20045;-65
2022/03/06 08:34:35;;;;;;;40.30;21.70;;;;;;;3.74;75.18;101452.13;8352648;28;20052;-65
2022/03/06 08:38:36;;;;;;;37.45;20.02;;;;;;;3.58;75.65;101460.97;8363701;28;20037;-65
2022/03/06 08:42:37;;;;;;;34.95;18.65;;;;;;;3.85;72.79;101460.47;8354279;28;20048;-65
2022/03/06 08:46:37;;;;;;;35.33;17.65;;;;;;;4.31;72.50;101461.75;8363139;28;20560;-65
2022/03/06 08:50:38;;;;;;;38.22;18.23;;;;;;;4.82;69.84;101463.53;8361565;28;20072;-65
2022/03/06 08:54:38;;;;;;;34.05;17.95;;;;;;;5.26;67.29;101467.34;8354262;28;20426;-65
2022/03/06 08:58:39;;;;;;;37.60;18.30;;;;;;;5.60;65.85;101472.56;8360825;28;20396;-65
2022/03/06 09:02:39;;;;;;;33.90;17.35;;;;;;;5.34;65.35;101475.84;8344628;28;20498;-65
2022/03/06 09:06:41;;;;;;;34.97;16.85;;;;;;;5.71;64.29;101479.06;8340268;28;20087;-65
2022/03/06 09:10:42;;;;;;;31.17;17.10;;;;;;;5.89;64.62;101469.16;8353047;28;20040;-65
2022/03/06 09:14:42;;;;;;;33.08;18.73;;;;;;;5.90;63.58;101471.75;8377865;28;20051;-65
2022/03/06 09:18:46;;;;;;;36.42;17.88;;;;;;;6.46;63.59;101471.09;8346234;28;20049;-65
2022/03/06 09:22:46;;;;;;;33.65;17.60;;;;;;;7.18;61.46;101473.81;8339078;28;20136;-65
2022/03/06 09:26:47;;;;;;;34.67;17.33;;;;;;;7.53;60.42;101478.69;8348366;28;20047;-65
2022/03/06 09:30:47;;;;;;;33.25;17.70;;;;;;;7.59;60.88;101478.28;8335927;28;20048;-65
2022/03/06 09:34:48;;;;;;;33.30;16.50;;;;;;;7.72;59.89;101479.22;8337822;28;20497;-65
2022/03/06 09:38:49;;;;;;;36.28;18.33;;;;;;;7.93;61.02;101482.38;8345354;28;20512;-65
2022/03/06 09:42:49;;;;;;;34.58;17.67;;;;;;;7.49;60.65;101477.16;8374250;28;20067;-65
2022/03/06 09:46:54;;;;;;;35.03;19.40;;;;;;;7.74;62.05;101485.38;8338696;28;20085;-63
2022/03/06 09:50:56;;;;;;;36.85;18.60;;;;;;;7.81;60.68;101489.41;8361986;28;20049;-63
2022/03/06 09:54:57;;;;;;;40.00;19.60;;;;;;;7.94;61.35;101479.56;8343015;28;20045;-64
2022/03/06 09:58:57;;;;;;;40.85;19.23;;;;;;;8.43;60.77;101492.50;8340515;28;20049;-64
2022/03/06 10:03:00;;;;;;;37.70;19.80;;;;;;;8.73;61.19;101485.03;8346498;28;20049;-64
2022/03/06 10:07:12;;;;;;;36.67;17.70;;;;;;;8.90;60.39;101476.63;8339684;28;20041;-64
2022/03/06 10:11:14;;;;;;;36.60;19.20;;;;;;;8.86;59.44;101472.44;8344360;28;20094;-64
2022/03/06 10:15:17;;;;;;;41.85;19.33;;;;;;;8.77;59.23;101470.38;8342569;28;20110;-64
2022/03/06 10:19:17;;;;;;;37.42;17.90;;;;;;;9.25;57.06;101472.34;8332541;28;20041;-64
2022/03/06 10:23:26;;;;;;;33.33;18.58;;;;;;;9.81;55.33;101461.00;8335212;28;20456;-64
2022/03/06 10:27:48;;;;;;;36.03;17.95;;;;;;;10.96;54.66;101474.69;8341509;28;20040;-64
2022/03/06 10:31:58;;;;;;;33.50;18.02;;;;;;;11.86;53.08;101470.94;8343287;28;20138;-64
2022/03/06 10:36:02;;;;;;;38.63;17.77;;;;;;;13.29;51.71;101474.88;8340257;28;20548;-64
2022/03/06 10:40:03;;;;;;;30.60;17.45;;;;;;;14.47;47.37;101475.88;8330734;28;20049;-64
2022/03/06 10:44:05;;;;;;;36.22;17.08;;;;;;;13.51;46.47;101465.72;8333825;28;20077;-64
2022/03/06 10:48:09;;;;;;;32.65;17.42;;;;;;;12.89;49.09;101470.28;8343487;28;20049;-64
2022/03/06 10:52:19;;;;;;;32.38;18.05;;;;;;;12.45;48.45;101468.69;8340230;28;20147;-64
2022/03/06 10:56:21;;;;;;;32.00;18.45;;;;;;;11.83;49.94;101468.47;8339393;28;20052;-64
2022/03/06 11:00:22;;;;;;;33.92;16.83;;;;;;;12.99;49.67;101457.66;8338821;28;20037;-64
2022/03/06 11:04:24;;;;;;;31.42;15.93;;;;;;;13.35;49.85;101454.47;8337457;28;20400;-64
2022/03/06 11:08:25;;;;;;;35.10;17.60;;;;;;;13.08;49.30;101456.88;8333900;28;20451;-64
2022/03/06 11:12:26;;;;;;;35.60;18.35;;;;;;;11.39;50.69;101454.06;8329937;28;20045;-64
2022/03/06 11:16:29;;;;;;;37.25;19.27;;;;;;;12.03;51.27;101453.28;8339950;28;20677;-64
2022/03/06 11:20:30;;;;;;;31.90;17.42;;;;;;;13.24;47.60;101443.69;8340399;28;20471;-64
2022/03/06 11:24:31;;;;;;;33.03;17.13;;;;;;;14.14;47.73;101429.97;8335409;28;20118;-64
2022/03/06 11:28:50;;;;;;;33.58;16.85;;;;;;;15.37;44.52;101426.28;8335624;28;20052;-64
2022/03/06 11:33:02;;;;;;;27.65;15.68;;;;;;;15.17;42.83;101421.03;8322368;28;20115;-64
2022/03/06 11:37:09;;;;;;;31.73;17.25;;;;;;;14.92;44.78;101414.38;8366177;28;20054;-64
2022/03/06 11:41:10;;;;;;;28.90;16.58;;;;;;;13.32;46.28;101414.00;8340266;28;20489;-64
2022/03/06 11:45:51;;;;;;;29.25;16.33;;;;;;;13.79;44.92;101407.88;8362472;28;20045;-64
2022/03/06 11:49:53;;;;;;;24.60;13.75;;;;;;;14.07;43.74;101395.31;8342925;28;20115;-64
2022/03/06 11:58:09;;;;;;;27.35;14.13;;;;;;;12.03;46.02;101403.63;8337541;27;20809;-64
2022/03/06 12:02:15;;;;;;;27.02;15.40;;;;;;;9.82;49.78;101397.88;8333519;28;20064;-64
2022/03/06 12:06:18;;;;;;;34.58;16.05;;;;;;;8.99;52.02;101411.25;8331934;28;20046;-64
2022/03/06 12:10:18;;;;;;;28.17;14.82;;;;;;;10.32;49.56;101403.09;8340178;28;20049;-64
2022/03/06 12:14:23;;;;;;;30.00;15.38;;;;;;;9.65;49.85;101401.00;8410878;28;20539;-63
2022/03/06 12:18:23;;;;;;;;;;;;;;;9.61;52.26;101394.94;8402757;28;20057;-63
2022/03/06 12:22:48;;;;;;;34.10;17.80;;;;;;;11.79;51.86;101393.84;8396463;28;19920;-65
2022/03/06 12:26:48;;;;;;;30.85;17.33;;;;;;;11.42;49.66;101392.41;8380160;28;20036;-64
2022/03/06 12:30:49;;;;;;;30.38;16.40;;;;;;;9.46;52.71;101395.22;8399610;28;20064;-63
2022/03/06 12:35:09;;;;;;;30.17;16.55;;;;;;;9.82;54.37;101387.09;8401476;28;20118;-64
2022/03/06 12:39:11;;;;;;;29.63;17.23;;;;;;;11.77;50.05;101387.69;8401501;28;20067;-64
2022/03/06 12:43:19;;;;;;;33.42;17.55;;;;;;;12.48;46.47;101383.47;8404812;28;20051;-64
2022/03/06 12:47:19;;;;;;;30.50;17.15;;;;;;;10.85;47.46;101380.84;8365959;28;20036;-64
2022/03/06 12:51:37;;;;;;;29.85;15.75;;;;;;;9.71;51.15;101378.94;8402048;28;20044;-63
2022/03/06 12:55:38;;;;;;;28.65;16.15;;;;;;;9.94;50.62;101381.63;8399811;28;20063;-63
2022/03/06 12:59:41;;;;;;;30.45;16.92;;;;;;;9.91;50.33;101376.47;8404746;28;20040;-63
2022/03/06 13:03:49;;;;;;;30.70;16.88;;;;;;;10.25;50.95;101372.13;8403558;28;20123;-64
2022/03/06 13:07:50;;;;;;;30.17;16.48;;;;;;;9.52;52.67;101373.19;8368261;28;20083;-64
2022/03/06 13:11:51;;;;;;;30.27;16.35;;;;;;;9.81;50.48;101371.88;8387501;28;20044;-64
2022/03/06 13:15:52;;;;;;;27.48;15.75;;;;;;;9.41;50.86;101365.00;8378747;28;20052;-64
2022/03/06 13:19:54;;;;;;;32.63;18.15;;;;;;;9.46;50.81;101360.97;8360925;28;20055;-64
2022/03/06 13:23:58;;;;;;;29.48;16.73;;;;;;;9.10;52.10;101365.50;8384401;28;20040;-62
2022/03/06 13:27:59;;;;;;;32.67;17.97;;;;;;;8.93;51.45;101360.47;8376584;28;20579;-64
2022/03/06 13:31:59;;;;;;;31.40;17.25;;;;;;;8.87;50.98;101363.59;8375138;28;20376;-64
2022/03/06 13:35:59;;;;;;;28.77;14.90;;;;;;;8.62;50.37;101361.78;8353608;28;20087;-64
2022/03/06 13:40:00;;;;;;;24.48;15.13;;;;;;;8.57;49.93;101368.47;8357130;28;20056;-64
2022/03/06 13:44:06;;;;;;;24.73;14.32;;;;;;;8.53;50.76;101361.53;8377350;28;20106;-64
2022/03/06 13:48:08;;;;;;;27.92;15.85;;;;;;;8.37;50.44;101358.19;8373961;28;20059;-64
2022/03/06 13:52:09;;;;;;;28.83;14.68;;;;;;;8.32;49.99;101360.38;8378832;28;20579;-64
2022/03/06 13:56:09;;;;;;;26.45;15.38;;;;;;;8.68;50.64;101360.47;8376917;28;20130;-63
2022/03/06 14:00:27;;;;;;;25.08;14.32;;;;;;;8.81;49.26;101347.88;8370354;28;20033;-63
2022/03/06 14:04:27;;;;;;;27.52;15.32;;;;;;;8.88;49.56;101343.75;8377926;28;20067;-63
2022/03/06 14:08:30;;;;;;;25.98;14.27;;;;;;;9.02;49.44;101341.78;8369942;28;20087;-63
2022/03/06 14:12:35;;;;;;;21.35;13.38;;;;;;;9.22;49.60;101338.53;8360656;28;20067;-64
2022/03/06 14:16:35;;;;;;;24.27;13.43;;;;;;;9.09;49.03;101339.53;8362993;28;20055;-64
2022/03/06 14:20:45;;;;;;;21.25;13.55;;;;;;;9.01;49.08;101334.69;8350257;28;20044;-64
2022/03/06 14:24:45;;;;;;;21.40;13.30;;;;;;;8.90;49.85;101336.41;8367735;28;20576;-64
2022/03/06 14:28:55;;;;;;;25.00;15.03;;;;;;;8.78;49.55;101332.75;8362455;28;20716;-64
2022/03/06 14:32:55;;;;;;;24.83;14.50;;;;;;;8.81;49.69;101343.31;8366478;28;20290;-64
2022/03/06 14:36:56;;;;;;;22.38;13.75;;;;;;;8.81;49.49;101331.69;8391909;28;20120;-62
2022/03/06 14:40:57;;;;;;;25.75;13.07;;;;;;;8.76;49.42;101339.25;8376243;28;20079;-64
2022/03/06 14:44:57;;;;;;;20.10;12.93;;;;;;;8.61;49.67;101329.53;8364857;28;20064;-64
2022/03/06 14:48:58;;;;;;;18.75;12.35;;;;;;;8.60;49.56;101333.22;8356166;28;20040;-64
2022/03/06 14:52:58;;;;;;;20.42;13.90;;;;;;;8.53;50.11;101338.16;8373607;28;20516;-64
2022/03/06 14:56:59;;;;;;;23.85;14.57;;;;;;;8.39;50.42;101340.09;8363012;28;20044;-64
2022/03/06 15:01:00;;;;;;;26.80;15.25;;;;;;;8.24;50.44;101335.78;8371357;28;20112;-64
2022/03/06 15:05:01;;;;;;;26.10;15.82;;;;;;;8.14;50.84;101348.13;8369309;28;20040;-64
2022/03/06 15:09:02;;;;;;;22.90;15.10;;;;;;;7.98;50.78;101346.47;8375025;28;20063;-64
2022/03/06 15:13:05;;;;;;;23.45;15.23;;;;;;;7.92;51.06;101344.19;8365529;28;20177;-64
2022/03/06 15:17:06;;;;;;;25.92;15.45;;;;;;;7.84;51.00;101349.22;8360124;28;20053;-64
2022/03/06 15:21:07;;;;;;;24.50;15.32;;;;;;;7.87;52.23;101343.63;8369765;28;20508;-64
2022/03/06 15:25:08;;;;;;;23.52;15.68;;;;;;;7.83;51.00;101347.50;8371833;28;20036;-64
2022/03/06 15:29:08;;;;;;;23.33;15.90;;;;;;;7.76;51.39;101354.28;8359838;28;20068;-64
2022/03/06 15:33:08;;;;;;;23.83;15.13;;;;;;;7.74;51.54;101353.50;8367092;28;20464;-64
2022/03/06 15:37:09;;;;;;;26.27;15.93;;;;;;;7.76;51.18;101340.81;8373336;28;20706;-64
2022/03/06 15:41:10;;;;;;;22.23;15.40;;;;;;;7.70;50.94;101338.53;8378020;28;20036;-64
2022/03/06 15:45:10;;;;;;;22.70;14.75;;;;;;;7.68;51.24;101337.75;8378082;28;20166;-64
2022/03/06 15:49:10;;;;;;;23.02;14.80;;;;;;;7.67;51.09;101338.75;8377732;28;20033;-64
2022/03/06 15:53:11;;;;;;;25.73;15.50;;;;;;;7.62;50.77;101337.28;8374706;28;20623;-64
2022/03/06 15:57:11;;;;;;;23.20;14.73;;;;;;;7.57;51.31;101326.84;8376651;28;20036;-64
2022/03/06 16:01:12;;;;;;;19.85;14.57;;;;;;;7.51;50.92;101335.31;8378311;28;20036;-64
2022/03/06 16:05:12;;;;;;;28.13;16.65;;;;;;;7.45;51.80;101326.81;8378112;28;20099;-64
2022/03/06 16:09:13;;;;;;;22.42;14.98;;;;;;;7.50;52.60;101327.34;8375673;28;20095;-64
2022/03/06 16:13:14;;;;;;;22.33;15.15;;;;;;;7.38;52.00;101329.03;8360480;28;20583;-64
2022/03/06 16:17:14;;;;;;;21.15;15.43;;;;;;;7.34;53.00;101337.38;8377749;28;20045;-65
2022/03/06 16:21:15;;;;;;;23.92;14.73;;;;;;;7.23;53.30;101340.78;8378721;28;20353;-64
2022/03/06 16:25:16;;;;;;;21.60;14.77;;;;;;;7.10;53.79;101328.22;8378664;28;20040;-64
2022/03/06 16:29:16;;;;;;;25.50;14.88;;;;;;;6.99;54.29;101337.00;8378835;28;20040;-64
2022/03/06 16:33:17;;;;;;;23.15;15.63;;;;;;;6.91;53.41;101344.69;8358141;28;20631;-64
2022/03/06 16:37:17;;;;;;;25.30;15.45;;;;;;;6.81;53.66;101340.84;8375018;28;20363;-64
2022/03/06 16:41:17;;;;;;;22.50;14.57;;;;;;;6.71;53.93;101347.75;8375563;28;20048;-64
2022/03/06 16:45:18;;;;;;;26.58;15.68;;;;;;;6.65;54.08;101342.75;8384317;28;20043;-64
2022/03/06 16:49:18;;;;;;;23.70;14.98;;;;;;;6.56;54.41;101343.31;8384607;28;20046;-64
2022/03/06 16:53:19;;;;;;;21.98;15.13;;;;;;;6.42;54.76;101354.06;8400347;28;20040;-64
2022/03/06 16:57:20;;;;;;;25.83;16.27;;;;;;;6.37;54.79;101348.09;8383689;28;20102;-64
2022/03/06 17:01:21;;;;;;;29.83;15.55;;;;;;;6.19;55.40;101349.22;8384837;28;20091;-64
2022/03/06 17:05:21;;;;;;;25.25;14.63;;;;;;;6.09;55.25;101358.78;8385270;28;20037;-64
2022/03/06 17:09:22;;;;;;;23.38;14.52;;;;;;;6.06;55.53;101358.97;8382770;28;20110;-64
2022/03/06 17:13:23;;;;;;;22.13;13.73;;;;;;;5.93;55.65;101363.34;8370534;28;20594;-64
2022/03/06 17:17:23;;;;;;;19.38;13.48;;;;;;;5.79;55.69;101369.50;8384550;28;20313;-64
2022/03/06 17:21:24;;;;;;;21.67;13.88;;;;;;;5.75;55.39;101375.13;8385398;28;20041;-64
2022/03/06 17:25:24;;;;;;;22.65;13.82;;;;;;;5.77;55.05;101383.97;8359021;28;20044;-64
2022/03/06 17:29:25;;;;;;;20.50;13.35;;;;;;;5.67;55.45;101393.47;8371096;28;20440;-64
2022/03/06 17:33:27;;;;;;;18.38;12.73;;;;;;;5.59;55.55;101401.13;8348838;28;20045;-64
2022/03/06 17:37:27;;;;;;;21.80;13.93;;;;;;;5.50;55.79;101396.28;8384420;28;20136;-64
2022/03/06 17:41:28;;;;;;;18.55;12.10;;;;;;;5.42;55.91;101393.16;8385491;28;20049;-64
2022/03/06 17:45:28;;;;;;;19.92;13.32;;;;;;;5.35;56.24;101400.69;8373042;28;20045;-64
2022/03/06 17:49:28;;;;;;;18.70;12.02;;;;;;;5.35;56.08;101407.84;8392235;28;20098;-64
2022/03/06 17:53:29;;;;;;;18.48;12.05;;;;;;;5.30;56.08;101409.91;8383106;28;20349;-64
2022/03/06 17:57:31;;;;;;;17.05;10.52;;;;;;;5.19;56.26;101425.75;8377922;28;20123;-64
2022/03/06 18:01:33;;;;;;;17.55;9.80;;;;;;;5.14;56.71;101419.75;8349622;28;20500;-64
2022/03/06 18:05:33;;;;;;;17.00;11.20;;;;;;;5.15;56.37;101421.47;8349115;28;20722;-64
2022/03/06 18:09:34;;;;;;;16.23;10.63;;;;;;;5.07;56.62;101423.75;8360124;28;20413;-64
2022/03/06 18:13:35;;;;;;;15.38;10.52;;;;;;;4.99;56.94;101426.84;8385487;28;20495;-64
2022/03/06 18:17:37;;;;;;;16.95;10.60;;;;;;;4.86;57.15;101432.94;8364614;28;20743;-64
2022/03/06 18:21:38;;;;;;;19.63;11.18;;;;;;;4.83;57.25;101441.13;8364840;28;20054;-64
2022/03/06 18:25:39;;;;;;;15.05;10.75;;;;;;;4.71;57.70;101447.13;8364733;28;20052;-64
2022/03/06 18:29:39;;;;;;;18.40;10.32;;;;;;;4.60;58.26;101452.22;8364164;28;20044;-64